createdAt,value
2023-04-19T00:01:01.601Z,2.20
2023-04-19T00:02:24.549Z,1.37
2023-04-19T00:03:47.000Z,1.57
2023-04-19T00:05:10.171Z,2.00
2023-04-19T00:06:32.251Z,1.60
2023-04-19T00:07:54.557Z,1.47
2023-04-19T00:09:16.677Z,1.70
2023-04-19T00:10:39.971Z,1.67
2023-04-19T00:12:02.851Z,2.03
2023-04-19T00:13:24.901Z,1.70
2023-04-19T00:14:46.939Z,1.60
2023-04-19T00:16:09.186Z,1.60
2023-04-19T00:17:31.786Z,1.80
2023-04-19T00:18:53.845Z,1.80
2023-04-19T00:20:15.950Z,1.70
2023-04-19T00:21:38.061Z,1.60
2023-04-19T00:23:00.262Z,1.57
2023-04-19T00:24:22.284Z,1.20
2023-04-19T00:25:46.200Z,1.47
2023-04-19T00:27:08.314Z,1.77
2023-04-19T00:28:31.117Z,1.47
2023-04-19T00:29:53.311Z,1.20
2023-04-19T00:31:15.450Z,1.57
2023-04-19T00:32:37.556Z,1.40
2023-04-19T00:33:59.630Z,1.20
2023-04-19T00:35:21.790Z,1.00
2023-04-19T00:36:43.814Z,1.03
2023-04-19T00:38:05.985Z,1.30
2023-04-19T00:39:28.066Z,1.60
2023-04-19T00:40:50.146Z,1.50
2023-04-19T00:42:12.203Z,1.33
2023-04-19T00:43:34.465Z,1.30
2023-04-19T00:44:56.552Z,1.13
2023-04-19T00:46:18.775Z,1.23
2023-04-19T00:47:41.443Z,1.53
2023-04-19T00:49:03.677Z,0.90
2023-04-19T00:50:26.377Z,1.47
2023-04-19T00:51:49.448Z,1.23
2023-04-19T00:53:11.843Z,0.80
2023-04-19T00:54:34.272Z,1.47
2023-04-19T00:56:00.273Z,1.13
2023-04-19T00:57:22.906Z,1.37
2023-04-19T00:58:45.677Z,1.20
2023-04-19T01:00:11.405Z,1.13
2023-04-19T01:01:38.172Z,1.43
2023-04-19T01:03:01.082Z,1.00
2023-04-19T01:04:23.975Z,0.90
2023-04-19T01:05:46.128Z,1.07
2023-04-19T01:07:09.115Z,1.20
2023-04-19T01:08:31.179Z,1.37
2023-04-19T01:09:53.252Z,1.10
2023-04-19T01:11:15.344Z,1.23
2023-04-19T01:12:37.497Z,1.20
2023-04-19T01:13:59.575Z,1.03
2023-04-19T01:15:22.414Z,0.90
2023-04-19T01:16:45.518Z,1.27
2023-04-19T01:18:07.674Z,1.20
2023-04-19T01:19:29.997Z,1.10
2023-04-19T01:20:52.800Z,1.20
2023-04-19T01:22:21.520Z,1.17
2023-04-19T01:23:43.579Z,1.03
2023-04-19T01:25:06.933Z,0.90
2023-04-19T01:26:29.035Z,1.20
2023-04-19T01:27:51.053Z,0.90
2023-04-19T01:29:13.247Z,1.40
2023-04-19T01:30:35.950Z,1.07
2023-04-19T01:31:57.992Z,0.90
2023-04-19T01:33:21.007Z,1.10
2023-04-19T01:34:43.191Z,1.10
2023-04-19T01:36:05.604Z,1.20
2023-04-19T01:37:27.647Z,1.00
2023-04-19T01:38:50.381Z,1.10
2023-04-19T01:40:13.015Z,1.10
2023-04-19T01:41:35.168Z,1.00
2023-04-19T01:42:57.217Z,1.80
2023-04-19T01:44:19.239Z,1.00
2023-04-19T01:45:41.241Z,1.00
2023-04-19T01:47:04.250Z,0.97
2023-04-19T01:48:26.727Z,1.00
2023-04-19T01:49:48.886Z,0.90
2023-04-19T01:51:10.985Z,0.97
2023-04-19T01:52:33.043Z,1.57
2023-04-19T01:53:55.050Z,0.90
2023-04-19T01:55:17.261Z,1.27
2023-04-19T01:56:39.305Z,0.80
2023-04-19T01:58:01.396Z,1.20
2023-04-19T01:59:23.459Z,1.00
2023-04-19T02:00:46.130Z,1.10
2023-04-19T02:02:09.218Z,1.00
2023-04-19T02:03:31.493Z,0.90
2023-04-19T02:04:53.661Z,0.97
2023-04-19T02:06:15.875Z,1.20
2023-04-19T02:07:38.163Z,1.10
2023-04-19T02:09:00.265Z,1.17
2023-04-19T02:10:22.611Z,0.90
2023-04-19T02:11:44.731Z,1.10
2023-04-19T02:13:06.788Z,0.90
2023-04-19T02:14:28.972Z,1.50
2023-04-19T02:15:51.044Z,1.20
2023-04-19T02:17:13.334Z,0.90
2023-04-19T02:18:41.485Z,1.37
2023-04-19T02:20:04.745Z,0.90
2023-04-19T02:21:27.487Z,0.90
2023-04-19T02:22:49.633Z,1.37
2023-04-19T02:24:11.781Z,1.07
2023-04-19T02:25:33.826Z,1.03
2023-04-19T02:26:55.886Z,0.90
2023-04-19T02:28:17.911Z,1.10
2023-04-19T02:29:40.610Z,0.80
2023-04-19T02:31:06.017Z,1.20
2023-04-19T02:32:28.168Z,0.90
2023-04-19T02:33:50.260Z,1.00
2023-04-19T02:35:12.953Z,1.10
2023-04-19T02:36:35.256Z,0.70
2023-04-19T02:37:57.319Z,0.80
2023-04-19T02:39:19.450Z,1.00
2023-04-19T02:40:41.494Z,1.00
2023-04-19T02:42:03.737Z,0.80
2023-04-19T02:43:26.033Z,0.80
2023-04-19T02:44:48.085Z,1.10
2023-04-19T02:46:10.652Z,0.90
2023-04-19T02:47:32.805Z,1.20
2023-04-19T02:48:54.876Z,1.13
2023-04-19T02:50:17.523Z,1.13
2023-04-19T02:51:39.570Z,0.90
2023-04-19T02:53:01.581Z,0.83
2023-04-19T02:54:23.751Z,1.00
2023-04-19T02:55:45.836Z,1.20
2023-04-19T02:57:07.994Z,1.00
2023-04-19T02:58:30.067Z,0.73
2023-04-19T02:59:52.078Z,1.00
2023-04-19T03:01:14.113Z,1.20
2023-04-19T03:02:37.169Z,1.30
2023-04-19T03:03:59.498Z,1.20
2023-04-19T03:05:22.092Z,0.80
2023-04-19T03:06:44.444Z,1.03
2023-04-19T03:08:06.539Z,1.03
2023-04-19T03:09:28.669Z,0.80
2023-04-19T03:10:50.711Z,1.20
2023-04-19T03:12:12.719Z,1.00
2023-04-19T03:13:34.872Z,1.00
2023-04-19T03:14:56.870Z,0.87
2023-04-19T03:16:19.074Z,0.90
2023-04-19T03:17:41.250Z,0.77
2023-04-19T03:19:03.379Z,0.90
2023-04-19T03:20:26.158Z,0.90
2023-04-19T03:21:48.362Z,1.00
2023-04-19T03:23:10.769Z,0.70
2023-04-19T03:24:33.571Z,0.70
2023-04-19T03:25:57.222Z,0.90
2023-04-19T03:27:19.371Z,1.00
2023-04-19T03:28:41.388Z,0.80
2023-04-19T03:30:03.771Z,0.80
2023-04-19T03:31:26.079Z,0.90
2023-04-19T03:32:48.777Z,1.00
2023-04-19T03:34:10.832Z,0.80
2023-04-19T03:35:32.968Z,1.00
2023-04-19T03:36:55.166Z,0.70
2023-04-19T03:38:17.206Z,0.73
2023-04-19T03:39:39.320Z,1.00
2023-04-19T03:41:01.505Z,1.10
2023-04-19T03:42:23.633Z,0.60
2023-04-19T03:43:46.115Z,0.80
2023-04-19T03:45:08.719Z,1.00
2023-04-19T03:46:31.703Z,0.63
2023-04-19T03:47:53.858Z,1.30
2023-04-19T03:49:15.908Z,1.00
2023-04-19T03:50:37.913Z,0.70
2023-04-19T03:51:59.978Z,1.00
2023-04-19T03:53:22.056Z,0.90
2023-04-19T03:54:44.066Z,0.70
2023-04-19T03:56:06.325Z,0.97
2023-04-19T03:57:28.407Z,0.90
2023-04-19T03:58:53.493Z,0.80
2023-04-19T04:00:16.529Z,0.90
2023-04-19T04:01:42.047Z,0.90
2023-04-19T04:03:04.575Z,0.90
2023-04-19T04:04:26.843Z,1.07
2023-04-19T04:05:49.058Z,1.10
2023-04-19T04:07:11.328Z,1.30
2023-04-19T04:08:33.395Z,1.40
2023-04-19T04:09:55.444Z,1.43
2023-04-19T04:11:17.692Z,0.90
2023-04-19T04:12:39.732Z,1.00
2023-04-19T04:14:01.832Z,1.10
2023-04-19T04:15:23.874Z,1.00
2023-04-19T04:16:45.965Z,0.90
2023-04-19T04:18:09.222Z,1.20
2023-04-19T04:19:31.392Z,1.00
2023-04-19T04:20:53.446Z,1.10
2023-04-19T04:22:16.546Z,0.90
2023-04-19T04:23:38.604Z,0.80
2023-04-19T04:25:02.207Z,0.90
2023-04-19T04:26:25.358Z,1.00
2023-04-19T04:27:48.364Z,1.20
2023-04-19T04:29:10.483Z,0.70
2023-04-19T04:30:34.306Z,1.07
2023-04-19T04:31:57.506Z,1.20
2023-04-19T04:33:19.650Z,0.83
2023-04-19T04:34:42.877Z,1.30
2023-04-19T04:36:06.821Z,1.13
2023-04-19T04:37:33.888Z,0.90
2023-04-19T04:38:57.105Z,1.20
2023-04-19T04:40:19.517Z,1.03
2023-04-19T04:41:42.046Z,1.00
2023-04-19T04:43:05.556Z,0.90
2023-04-19T04:44:27.962Z,1.00
2023-04-19T04:45:50.305Z,0.90
2023-04-19T04:47:13.352Z,0.87
2023-04-19T04:48:35.375Z,0.70
2023-04-19T04:49:57.424Z,0.83
2023-04-19T04:51:19.766Z,1.23
2023-04-19T04:52:41.795Z,1.10
2023-04-19T04:54:05.200Z,0.93
2023-04-19T04:55:27.281Z,1.00
2023-04-19T04:56:49.565Z,1.13
2023-04-19T04:58:11.671Z,1.20
2023-04-19T04:59:33.685Z,0.87
2023-04-19T05:00:55.803Z,1.20
2023-04-19T05:02:18.520Z,0.93
2023-04-19T05:03:40.768Z,0.90
2023-04-19T05:05:03.396Z,0.80
2023-04-19T05:06:26.552Z,1.10
2023-04-19T05:07:48.638Z,1.10
2023-04-19T05:09:11.437Z,0.90
2023-04-19T05:10:33.525Z,1.00
2023-04-19T05:11:55.650Z,1.27
2023-04-19T05:13:17.703Z,1.10
2023-04-19T05:14:39.705Z,1.10
2023-04-19T05:16:01.794Z,1.57
2023-04-19T05:17:23.855Z,1.40
2023-04-19T05:18:46.015Z,1.00
2023-04-19T05:20:08.660Z,0.90
2023-04-19T05:21:30.920Z,0.77
2023-04-19T05:22:58.388Z,1.00
2023-04-19T05:24:20.621Z,1.00
2023-04-19T05:25:42.742Z,1.00
2023-04-19T05:27:04.846Z,1.00
2023-04-19T05:28:26.924Z,1.10
2023-04-19T05:29:51.360Z,1.03
2023-04-19T05:31:14.088Z,1.30
2023-04-19T05:32:36.347Z,1.00
2023-04-19T05:33:58.390Z,1.00
2023-04-19T05:35:20.632Z,0.97
2023-04-19T05:36:42.676Z,1.00
2023-04-19T05:38:04.714Z,1.80
2023-04-19T05:39:26.886Z,0.97
2023-04-19T05:40:48.993Z,0.90
2023-04-19T05:42:11.065Z,1.00
2023-04-19T05:43:33.138Z,1.40
2023-04-19T05:44:55.138Z,1.17
2023-04-19T05:46:17.202Z,1.60
2023-04-19T05:47:39.630Z,1.00
2023-04-19T05:49:02.606Z,1.30
2023-04-19T05:50:24.656Z,1.57
2023-04-19T05:51:46.802Z,1.00
2023-04-19T05:53:08.821Z,1.20
2023-04-19T05:54:34.418Z,0.97
2023-04-19T05:55:56.437Z,1.10
2023-04-19T05:57:18.529Z,1.30
2023-04-19T05:58:40.573Z,1.00
2023-04-19T06:00:03.372Z,1.00
2023-04-19T06:01:25.482Z,1.37
2023-04-19T06:02:47.745Z,0.90
2023-04-19T06:04:10.222Z,1.47
2023-04-19T06:05:32.805Z,0.90
2023-04-19T06:06:54.888Z,1.10
2023-04-19T06:08:17.490Z,1.27
2023-04-19T06:09:39.526Z,1.27
2023-04-19T06:11:08.274Z,1.40
2023-04-19T06:12:42.132Z,1.20
2023-04-19T06:14:04.259Z,1.20
2023-04-19T06:15:27.009Z,1.17
2023-04-19T06:16:49.136Z,1.00
2023-04-19T06:18:18.902Z,1.33
2023-04-19T06:19:42.731Z,1.00
2023-04-19T06:21:04.874Z,1.30
2023-04-19T06:22:26.898Z,1.07
2023-04-19T06:23:48.964Z,1.47
2023-04-19T06:25:11.116Z,1.50
2023-04-19T06:26:33.302Z,1.30
2023-04-19T06:27:55.331Z,1.33
2023-04-19T06:29:20.263Z,1.10
2023-04-19T06:30:42.351Z,1.10
2023-04-19T06:32:04.662Z,1.07
2023-04-19T06:33:26.870Z,1.37
2023-04-19T06:34:48.981Z,1.10
2023-04-19T06:36:11.134Z,1.70
2023-04-19T06:37:34.091Z,1.23
2023-04-19T06:38:56.149Z,1.40
2023-04-19T06:40:18.270Z,1.40
2023-04-19T06:41:40.351Z,1.50
2023-04-19T06:43:02.511Z,1.50
2023-04-19T06:44:28.197Z,1.43
2023-04-19T06:45:57.855Z,0.90
2023-04-19T06:47:19.916Z,1.30
2023-04-19T06:48:42.007Z,0.90
2023-04-19T06:50:04.378Z,1.23
2023-04-19T06:51:26.968Z,1.00
2023-04-19T06:52:49.068Z,1.07
2023-04-19T06:54:11.158Z,1.40
2023-04-19T06:55:33.370Z,1.57
2023-04-19T06:56:57.010Z,1.47
2023-04-19T06:58:19.057Z,1.47
2023-04-19T06:59:41.130Z,1.20
2023-04-19T07:01:04.493Z,1.30
2023-04-19T07:02:26.939Z,1.37
2023-04-19T07:03:49.216Z,1.10
2023-04-19T07:05:13.702Z,1.43
2023-04-19T07:06:36.362Z,1.27
2023-04-19T07:07:58.714Z,1.10
2023-04-19T07:09:20.823Z,1.50
2023-04-19T07:10:43.784Z,1.00
2023-04-19T07:12:06.945Z,1.10
2023-04-19T07:13:29.013Z,1.30
2023-04-19T07:14:56.282Z,1.20
2023-04-19T07:16:18.509Z,1.70
2023-04-19T07:17:40.727Z,1.20
2023-04-19T07:19:02.863Z,1.73
2023-04-19T07:20:24.954Z,1.30
2023-04-19T07:21:47.009Z,1.30
2023-04-19T07:23:09.101Z,1.20
2023-04-19T07:24:31.166Z,1.10
2023-04-19T07:25:53.215Z,1.20
2023-04-19T07:27:16.472Z,1.20
2023-04-19T07:28:39.891Z,1.30
2023-04-19T07:30:01.969Z,1.43
2023-04-19T07:31:28.642Z,1.50
2023-04-19T07:32:51.869Z,1.30
2023-04-19T07:34:14.356Z,1.00
2023-04-19T07:35:39.329Z,1.60
2023-04-19T07:37:01.511Z,1.70
2023-04-19T07:38:24.744Z,1.20
2023-04-19T07:39:46.865Z,2.00
2023-04-19T07:41:09.171Z,1.80
2023-04-19T07:42:31.267Z,1.20
2023-04-19T07:43:53.380Z,1.60
2023-04-19T07:45:15.653Z,1.13
2023-04-19T07:46:37.924Z,1.60
2023-04-19T07:48:00.114Z,1.87
2023-04-19T07:49:22.211Z,1.40
2023-04-19T07:50:44.422Z,1.33
2023-04-19T07:52:09.409Z,1.37
2023-04-19T07:53:31.479Z,1.43
2023-04-19T07:54:53.490Z,1.77
2023-04-19T07:56:15.630Z,2.23
2023-04-19T07:57:39.020Z,1.27
2023-04-19T07:59:08.136Z,1.43
2023-04-19T08:00:31.510Z,1.80
2023-04-19T08:01:53.616Z,1.37
2023-04-19T08:03:15.964Z,1.80
2023-04-19T08:04:38.647Z,1.40
2023-04-19T08:06:05.578Z,1.47
2023-04-19T08:07:27.605Z,2.63
2023-04-19T08:08:50.215Z,1.40
2023-04-19T08:10:12.985Z,1.43
2023-04-19T08:11:35.190Z,1.80
2023-04-19T08:13:04.511Z,1.40
2023-04-19T08:14:37.799Z,1.50
2023-04-19T08:17:40.103Z,1.33
2023-04-19T08:19:04.197Z,1.77
2023-04-19T08:20:26.800Z,1.37
2023-04-19T08:21:48.974Z,1.20
2023-04-19T08:23:22.209Z,1.50
2023-04-19T08:24:46.594Z,1.70
2023-04-19T08:26:08.759Z,1.67
2023-04-19T08:27:30.856Z,2.20
2023-04-19T08:28:52.931Z,1.37
2023-04-19T08:30:15.732Z,1.53
2023-04-19T08:31:38.163Z,1.50
2023-04-19T08:33:01.370Z,2.07
2023-04-19T08:34:23.528Z,1.50
2023-04-19T08:35:45.972Z,1.60
2023-04-19T08:37:08.187Z,1.27
2023-04-19T08:38:30.337Z,1.57
2023-04-19T08:39:52.370Z,1.60
2023-04-19T08:41:15.495Z,1.40
2023-04-19T08:42:37.564Z,1.93
2023-04-19T08:44:01.207Z,1.70
2023-04-19T08:45:28.607Z,1.70
2023-04-19T08:46:52.462Z,2.20
2023-04-19T08:48:16.791Z,1.70
2023-04-19T08:49:42.639Z,1.23
2023-04-19T08:51:06.225Z,1.73
2023-04-19T08:52:28.646Z,1.83
2023-04-19T08:53:51.561Z,1.67
2023-04-19T08:55:15.228Z,1.97
2023-04-19T08:56:37.487Z,1.33
2023-04-19T08:58:01.679Z,1.47
2023-04-19T08:59:24.714Z,1.53
2023-04-19T09:00:46.894Z,1.70
2023-04-19T09:02:09.077Z,1.50
2023-04-19T09:03:36.558Z,1.47
2023-04-19T09:05:07.712Z,1.53
2023-04-19T09:06:35.357Z,1.43
2023-04-19T09:08:20.809Z,1.53
2023-04-19T09:09:55.530Z,1.60
2023-04-19T09:11:38.559Z,1.57
2023-04-19T09:13:03.056Z,1.47
2023-04-19T09:14:27.081Z,1.60
2023-04-19T09:15:49.252Z,1.60
2023-04-19T09:17:16.445Z,1.60
2023-04-19T09:19:08.168Z,1.80
2023-04-19T09:20:39.473Z,1.63
2023-04-19T09:22:13.867Z,1.67
2023-04-19T09:23:47.026Z,1.53
2023-04-19T09:26:35.080Z,2.10
2023-04-19T09:28:12.218Z,1.50
2023-04-19T09:29:34.254Z,1.60
2023-04-19T09:31:05.813Z,1.70
2023-04-19T09:32:47.319Z,1.50
2023-04-19T09:34:17.932Z,1.90
2023-04-19T09:35:44.821Z,1.93
2023-04-19T09:37:29.554Z,2.30
2023-04-19T09:38:58.978Z,1.93
2023-04-19T09:40:25.311Z,1.67
2023-04-19T09:41:54.777Z,2.30
2023-04-19T09:43:55.869Z,1.90
2023-04-19T09:46:36.550Z,1.70
2023-04-19T09:48:04.099Z,1.90
2023-04-19T09:49:41.652Z,1.77
2023-04-19T09:51:12.970Z,2.00
2023-04-19T09:52:37.446Z,2.23
2023-04-19T09:53:59.657Z,1.40
2023-04-19T09:55:27.538Z,1.30
2023-04-19T09:56:54.074Z,2.03
2023-04-19T09:58:19.389Z,1.93
2023-04-19T09:59:41.580Z,1.53
2023-04-19T10:02:34.425Z,1.70
2023-04-19T10:03:59.223Z,1.50
2023-04-19T10:05:28.881Z,2.13
2023-04-19T10:07:19.368Z,1.77
2023-04-19T10:08:38.503Z,1.83
2023-04-19T10:10:15.914Z,1.93
2023-04-19T10:11:50.177Z,2.00
2023-04-19T10:13:20.501Z,2.40
2023-04-19T10:15:51.133Z,2.10
2023-04-19T10:17:15.514Z,1.40
2023-04-19T10:18:37.826Z,1.90
2023-04-19T10:20:10.879Z,1.67
2023-04-19T10:21:33.934Z,1.70
2023-04-19T10:22:56.412Z,1.87
2023-04-19T10:24:19.728Z,1.63
2023-04-19T10:25:49.169Z,1.90
2023-04-19T10:27:14.669Z,1.40
2023-04-19T10:28:38.035Z,1.63
2023-04-19T10:30:03.399Z,1.80
2023-04-19T10:31:27.029Z,1.77
2023-04-19T10:32:53.467Z,2.17
2023-04-19T10:34:39.765Z,2.00
2023-04-19T10:36:02.263Z,1.87
2023-04-19T10:37:26.463Z,2.10
2023-04-19T10:38:52.217Z,2.63
2023-04-19T10:41:04.275Z,2.37
2023-04-19T10:43:04.916Z,1.73
2023-04-19T10:44:27.048Z,1.80
2023-04-19T10:45:49.283Z,1.90
2023-04-19T10:47:12.995Z,1.60
2023-04-19T10:48:38.810Z,2.27
2023-04-19T10:50:04.771Z,1.87
2023-04-19T10:51:28.858Z,1.87
2023-04-19T10:52:51.036Z,1.33
2023-04-19T10:54:34.154Z,1.63
2023-04-19T10:55:56.321Z,1.50
2023-04-19T10:57:18.660Z,2.50
2023-04-19T10:59:02.486Z,1.70
2023-04-19T11:00:26.906Z,2.60
2023-04-19T11:01:50.566Z,2.00
2023-04-19T11:03:43.980Z,1.60
2023-04-19T11:05:06.741Z,1.60
2023-04-19T11:06:29.001Z,1.93
2023-04-19T11:07:51.031Z,1.40
2023-04-19T11:09:31.947Z,1.90
2023-04-19T11:10:57.145Z,2.53
2023-04-19T11:12:20.967Z,1.63
2023-04-19T11:13:43.552Z,1.77
2023-04-19T11:15:06.433Z,1.87
2023-04-19T11:16:42.327Z,1.90
2023-04-19T11:18:12.806Z,1.93
2023-04-19T11:19:35.287Z,3.20
2023-04-19T11:20:58.140Z,2.10
2023-04-19T11:22:26.300Z,2.13
2023-04-19T11:23:50.058Z,1.63
2023-04-19T11:25:21.977Z,1.30
2023-04-19T11:26:48.537Z,1.87
2023-04-19T11:28:10.985Z,2.10
2023-04-19T11:29:33.193Z,1.50
2023-04-19T11:30:56.292Z,1.67
2023-04-19T11:32:21.568Z,2.33
2023-04-19T11:33:44.329Z,1.80
2023-04-19T11:35:08.375Z,1.80
2023-04-19T11:36:32.239Z,1.80
2023-04-19T11:37:56.687Z,1.83
2023-04-19T11:39:19.720Z,1.60
2023-04-19T11:40:41.854Z,2.17
2023-04-19T11:42:04.907Z,2.10
2023-04-19T11:43:37.109Z,1.93
2023-04-19T11:44:59.910Z,2.60
2023-04-19T11:46:22.100Z,2.00
2023-04-19T11:47:48.226Z,1.90
2023-04-19T11:49:10.418Z,1.47
2023-04-19T11:50:36.474Z,1.80
2023-04-19T11:52:06.123Z,1.93
2023-04-19T11:53:30.518Z,1.93
2023-04-19T11:54:53.137Z,2.23
2023-04-19T11:56:16.711Z,1.60
2023-04-19T11:57:41.780Z,2.20
2023-04-19T11:59:03.879Z,1.90
2023-04-19T12:00:30.550Z,2.00
2023-04-19T12:01:52.864Z,1.73
2023-04-19T12:03:15.879Z,2.50
2023-04-19T12:04:39.408Z,2.00
2023-04-19T12:06:10.633Z,2.40
2023-04-19T12:07:32.926Z,2.63
2023-04-19T12:08:56.691Z,2.40
2023-04-19T12:10:19.038Z,2.17
2023-04-19T12:11:49.997Z,1.80
2023-04-19T12:13:18.585Z,1.90
2023-04-19T12:14:52.660Z,2.13
2023-04-19T12:16:14.930Z,2.30
2023-04-19T12:18:00.009Z,3.13
2023-04-19T12:19:22.313Z,1.77
2023-04-19T12:20:49.299Z,2.53
2023-04-19T12:22:13.818Z,1.70
2023-04-19T12:23:35.840Z,2.27
2023-04-19T12:24:57.961Z,1.77
2023-04-19T12:26:20.149Z,2.13
2023-04-19T12:27:42.252Z,1.60
2023-04-19T12:29:04.402Z,1.87
2023-04-19T12:30:27.012Z,2.03
2023-04-19T12:31:49.141Z,1.87
2023-04-19T12:33:11.715Z,2.40
2023-04-19T12:34:33.931Z,1.70
2023-04-19T12:35:56.031Z,1.97
2023-04-19T12:37:18.046Z,2.10
2023-04-19T12:38:40.766Z,2.23
2023-04-19T12:40:02.871Z,2.77
2023-04-19T12:41:24.915Z,1.70
2023-04-19T12:42:47.322Z,1.90
2023-04-19T12:44:09.419Z,1.50
2023-04-19T12:45:32.521Z,2.03
2023-04-19T12:46:57.578Z,1.53
2023-04-19T12:48:19.960Z,2.00
2023-04-19T12:49:42.034Z,2.27
2023-04-19T12:51:05.587Z,1.77
2023-04-19T12:52:27.790Z,1.90
2023-04-19T12:53:50.858Z,2.10
2023-04-19T12:55:13.268Z,2.43
2023-04-19T12:56:35.766Z,1.53
2023-04-19T12:57:57.872Z,1.90
2023-04-19T12:59:20.079Z,2.13
2023-04-19T13:00:42.255Z,1.93
2023-04-19T13:02:06.324Z,2.10
2023-04-19T13:03:32.955Z,1.60
2023-04-19T13:04:55.449Z,1.90
2023-04-19T13:06:17.830Z,2.30
2023-04-19T13:07:40.147Z,2.00
2023-04-19T13:09:11.469Z,1.80
2023-04-19T13:10:36.279Z,2.47
2023-04-19T13:11:58.961Z,1.90
2023-04-19T13:13:21.092Z,1.90
2023-04-19T13:14:46.150Z,1.63
2023-04-19T13:16:08.369Z,2.10
2023-04-19T13:17:30.521Z,1.60
2023-04-19T13:18:54.641Z,1.80
2023-04-19T13:20:19.899Z,1.80
2023-04-19T13:21:42.611Z,1.40
2023-04-19T13:23:04.793Z,1.70
2023-04-19T13:24:26.885Z,2.20
2023-04-19T13:25:49.164Z,2.70
2023-04-19T13:27:11.575Z,1.73
2023-04-19T13:28:35.833Z,1.80
2023-04-19T13:29:58.129Z,2.00
2023-04-19T13:31:20.223Z,1.70
2023-04-19T13:32:42.565Z,2.00
2023-04-19T13:34:04.745Z,2.10
2023-04-19T13:35:26.870Z,2.10
2023-04-19T13:36:49.157Z,1.90
2023-04-19T13:38:11.221Z,1.63
2023-04-19T13:39:33.451Z,2.13
2023-04-19T13:40:56.144Z,1.90
2023-04-19T13:42:19.043Z,2.00
2023-04-19T13:43:41.256Z,1.70
2023-04-19T13:45:03.490Z,2.00
2023-04-19T13:46:25.766Z,2.10
2023-04-19T13:47:47.939Z,1.80
2023-04-19T13:49:10.101Z,1.83
2023-04-19T13:50:32.280Z,2.07
2023-04-19T13:51:54.464Z,2.17
2023-04-19T13:53:16.635Z,1.90
2023-04-19T13:54:38.788Z,2.00
2023-04-19T13:56:00.941Z,1.63
2023-04-19T13:57:23.025Z,2.37
2023-04-19T13:58:45.301Z,2.03
2023-04-19T14:00:08.426Z,1.70
2023-04-19T14:01:30.783Z,1.80
2023-04-19T14:02:54.417Z,1.97
2023-04-19T14:04:17.151Z,2.20
2023-04-19T14:05:39.876Z,2.40
2023-04-19T14:07:02.002Z,2.30
2023-04-19T14:08:24.113Z,2.10
2023-04-19T14:09:46.170Z,1.80
2023-04-19T14:11:08.188Z,2.10
2023-04-19T14:12:30.633Z,1.60
2023-04-19T14:13:53.376Z,1.80
2023-04-19T14:15:15.536Z,1.63
2023-04-19T14:16:37.592Z,1.63
2023-04-19T14:18:00.587Z,1.67
2023-04-19T14:19:22.722Z,1.90
2023-04-19T14:20:44.846Z,2.27
2023-04-19T14:22:07.016Z,1.70
2023-04-19T14:23:29.110Z,2.20
2023-04-19T14:24:51.191Z,2.00
2023-04-19T14:26:13.579Z,1.83
2023-04-19T14:27:35.922Z,1.77
2023-04-19T14:28:57.946Z,1.97
2023-04-19T14:30:20.702Z,2.13
2023-04-19T14:31:42.823Z,1.87
2023-04-19T14:33:04.953Z,2.13
2023-04-19T14:34:27.103Z,2.60
2023-04-19T14:35:49.294Z,2.10
2023-04-19T14:37:11.368Z,2.40
2023-04-19T14:38:33.826Z,2.30
2023-04-19T14:39:55.995Z,2.10
2023-04-19T14:41:18.171Z,2.30
2023-04-19T14:42:40.600Z,2.20
2023-04-19T14:44:02.662Z,2.30
2023-04-19T14:45:24.741Z,2.60
2023-04-19T14:46:46.853Z,2.43
2023-04-19T14:48:09.045Z,1.87
2023-04-19T14:49:31.185Z,2.43
2023-04-19T14:50:53.242Z,2.50
2023-04-19T14:52:15.708Z,2.38
2023-04-19T14:53:37.772Z,2.30
2023-04-19T14:55:00.074Z,2.10
2023-04-19T14:56:22.209Z,1.80
2023-04-19T14:57:44.213Z,1.80
2023-04-19T14:59:08.139Z,2.30
2023-04-19T15:00:30.480Z,2.07
2023-04-19T15:01:52.631Z,2.37
2023-04-19T15:03:15.134Z,2.50
2023-04-19T15:04:40.700Z,2.30
2023-04-19T15:06:04.988Z,1.93
2023-04-19T15:07:28.324Z,2.10
2023-04-19T15:08:50.434Z,2.63
2023-04-19T15:10:12.509Z,2.20
2023-04-19T15:11:34.574Z,2.60
2023-04-19T15:12:56.731Z,2.20
2023-04-19T15:14:19.788Z,1.90
2023-04-19T15:15:42.154Z,2.03
2023-04-19T15:17:04.459Z,2.03
2023-04-19T15:18:26.506Z,2.20
2023-04-19T15:19:48.718Z,2.17
2023-04-19T15:21:10.822Z,1.90
2023-04-19T15:22:33.752Z,2.53
2023-04-19T15:23:55.867Z,2.60
2023-04-19T15:25:17.983Z,2.37
2023-04-19T15:26:42.136Z,2.80
2023-04-19T15:28:05.853Z,2.13
2023-04-19T15:29:27.942Z,2.10
2023-04-19T15:31:01.271Z,2.27
2023-04-19T15:32:23.363Z,2.03
2023-04-19T15:33:45.866Z,2.20
2023-04-19T15:35:08.308Z,1.90
2023-04-19T15:36:31.056Z,3.00
2023-04-19T15:37:53.130Z,2.10
2023-04-19T15:39:15.493Z,2.10
2023-04-19T15:40:38.459Z,2.00
2023-04-19T15:42:01.991Z,2.17
2023-04-19T15:43:25.133Z,2.30
2023-04-19T15:44:47.227Z,3.17
2023-04-19T15:46:13.075Z,3.10
2023-04-19T15:47:35.376Z,2.77
2023-04-19T15:48:57.541Z,2.20
2023-04-19T15:50:19.638Z,3.00
2023-04-19T15:51:41.863Z,2.50
2023-04-19T15:53:04.345Z,2.37
2023-04-19T15:54:27.219Z,2.47
2023-04-19T15:55:49.455Z,2.33
2023-04-19T15:57:11.762Z,2.40
2023-04-19T15:58:33.886Z,2.57
2023-04-19T15:59:56.026Z,2.10
2023-04-19T16:01:19.262Z,2.57
2023-04-19T16:02:42.087Z,2.03
2023-04-19T16:04:04.706Z,1.90
2023-04-19T16:05:27.804Z,2.40
2023-04-19T16:06:49.954Z,2.20
2023-04-19T16:08:17.190Z,2.80
2023-04-19T16:09:41.775Z,2.17
2023-04-19T16:11:04.944Z,1.90
2023-04-19T16:12:27.468Z,1.70
2023-04-19T16:13:49.655Z,2.33
2023-04-19T16:15:11.900Z,1.60
2023-04-19T16:16:35.428Z,1.90
2023-04-19T16:17:57.618Z,2.20
2023-04-19T16:19:20.589Z,1.80
2023-04-19T16:20:44.005Z,2.27
2023-04-19T16:22:06.186Z,1.70
2023-04-19T16:23:28.310Z,2.00
2023-04-19T16:24:51.410Z,2.03
2023-04-19T16:26:13.493Z,2.30
2023-04-19T16:27:35.639Z,2.00
2023-04-19T16:28:59.290Z,2.10
2023-04-19T16:30:23.459Z,1.87
2023-04-19T16:31:45.667Z,2.00
2023-04-19T16:33:07.914Z,1.50
2023-04-19T16:34:30.108Z,1.97
2023-04-19T16:35:52.153Z,2.40
2023-04-19T16:37:16.154Z,1.90
2023-04-19T16:38:38.261Z,1.83
2023-04-19T16:40:08.571Z,1.60
2023-04-19T16:41:30.637Z,2.30
2023-04-19T16:42:52.922Z,2.30
2023-04-19T16:44:15.466Z,2.20
2023-04-19T16:45:37.563Z,2.07
2023-04-19T16:46:59.621Z,2.03
2023-04-19T16:48:21.704Z,2.27
2023-04-19T16:49:43.748Z,2.40
2023-04-19T16:51:05.978Z,2.17
2023-04-19T16:52:29.765Z,2.00
2023-04-19T16:53:53.132Z,2.30
2023-04-19T16:55:15.605Z,1.97
2023-04-19T16:56:37.684Z,2.37
2023-04-19T16:57:59.763Z,1.80
2023-04-19T16:59:21.824Z,2.50
2023-04-19T17:00:43.902Z,2.10
2023-04-19T17:02:07.459Z,2.17
2023-04-19T17:03:30.436Z,2.53
2023-04-19T17:04:52.864Z,2.57
2023-04-19T17:06:15.635Z,2.17
2023-04-19T17:07:38.505Z,2.10
2023-04-19T17:09:05.104Z,2.37
2023-04-19T17:10:27.741Z,1.93
2023-04-19T17:11:49.921Z,1.83
2023-04-19T17:13:12.056Z,2.30
2023-04-19T17:14:35.296Z,2.80
2023-04-19T17:15:57.408Z,2.57
2023-04-19T17:17:20.060Z,1.90
2023-04-19T17:18:42.255Z,2.10
2023-04-19T17:20:06.089Z,2.00
2023-04-19T17:21:28.167Z,1.90
2023-04-19T17:22:50.252Z,2.23
2023-04-19T17:24:12.446Z,2.27
2023-04-19T17:25:34.481Z,2.30
2023-04-19T17:26:56.739Z,3.43
2023-04-19T17:28:19.005Z,3.27
2023-04-19T17:29:41.132Z,2.30
2023-04-19T17:31:03.996Z,2.90
2023-04-19T17:32:26.172Z,2.70
2023-04-19T17:33:48.286Z,1.93
2023-04-19T17:35:10.721Z,2.10
2023-04-19T17:36:32.826Z,2.93
2023-04-19T17:37:54.864Z,2.30
2023-04-19T17:39:17.610Z,3.30
2023-04-19T17:40:39.760Z,3.20
2023-04-19T17:42:01.816Z,2.73
2023-04-19T17:43:25.198Z,2.67
2023-04-19T17:44:47.621Z,2.73
2023-04-19T17:46:10.818Z,2.93
2023-04-19T17:47:32.968Z,2.70
2023-04-19T17:48:55.478Z,3.17
2023-04-19T17:50:17.579Z,2.77
2023-04-19T17:51:39.704Z,3.40
2023-04-19T17:53:01.870Z,3.27
2023-04-19T17:54:24.018Z,2.90
2023-04-19T17:55:46.202Z,3.50
2023-04-19T17:57:08.415Z,2.83
2023-04-19T17:58:30.693Z,3.40
2023-04-19T17:59:52.881Z,3.50
2023-04-19T18:01:16.314Z,3.60
2023-04-19T18:02:38.791Z,2.20
2023-04-19T18:04:01.353Z,3.30
2023-04-19T18:05:23.621Z,2.93
2023-04-19T18:06:46.894Z,2.87
2023-04-19T18:08:09.848Z,2.90
2023-04-19T18:09:31.898Z,3.17
2023-04-19T18:10:53.955Z,2.70
2023-04-19T18:12:16.256Z,3.20
2023-04-19T18:13:38.416Z,2.80
2023-04-19T18:15:00.932Z,2.43
2023-04-19T18:16:23.142Z,2.27
2023-04-19T18:17:45.302Z,3.17
2023-04-19T18:19:07.403Z,2.50
2023-04-19T18:20:29.662Z,2.40
2023-04-19T18:21:51.806Z,2.70
2023-04-19T18:23:13.938Z,2.93
2023-04-19T18:24:36.008Z,2.80
2023-04-19T18:26:02.679Z,2.70
2023-04-19T18:27:24.784Z,2.20
2023-04-19T18:28:47.068Z,2.17
2023-04-19T18:30:09.516Z,2.53
2023-04-19T18:31:31.631Z,2.57
2023-04-19T18:32:53.795Z,2.87
2023-04-19T18:34:16.219Z,2.80
2023-04-19T18:35:38.337Z,2.37
2023-04-19T18:37:02.999Z,2.83
2023-04-19T18:38:25.104Z,2.90
2023-04-19T18:39:47.181Z,2.47
2023-04-19T18:41:09.230Z,2.40